createdAt,value
2023-01-01T00:01:43.811Z,11.43
2023-01-01T00:04:15.346Z,10.88
2023-01-01T00:06:43.765Z,13.25
2023-01-01T00:09:29.327Z,12.40
2023-01-01T00:11:55.672Z,12.25
2023-01-01T00:14:22.372Z,13.23
2023-01-01T00:16:49.140Z,12.25
2023-01-01T00:19:16.077Z,14.10
2023-01-01T00:21:42.526Z,11.77
2023-01-01T00:24:09.157Z,14.15
2023-01-01T00:26:35.953Z,13.15
2023-01-01T00:29:03.549Z,13.38
2023-01-01T00:31:30.418Z,15.32
2023-01-01T00:33:58.044Z,13.48
2023-01-01T00:36:26.889Z,13.30
2023-01-01T00:38:53.437Z,15.00
2023-01-01T00:41:21.006Z,14.40
2023-01-01T00:43:47.820Z,14.45
2023-01-01T00:46:14.213Z,18.38
2023-01-01T00:48:41.119Z,17.50
2023-01-01T00:51:08.012Z,18.13
2023-01-01T00:53:34.545Z,20.00
2023-01-01T00:56:01.307Z,20.30
2023-01-01T00:58:27.646Z,19.13
2023-01-01T01:00:54.719Z,20.45
2023-01-01T01:03:31.230Z,21.90
2023-01-01T01:05:58.497Z,18.23
2023-01-01T01:08:30.684Z,18.70
2023-01-01T01:11:13.465Z,20.02
2023-01-01T01:13:40.895Z,19.98
2023-01-01T01:16:14.984Z,20.08
2023-01-01T01:18:42.183Z,22.90
2023-01-01T01:21:08.661Z,21.50
2023-01-01T01:23:35.942Z,21.95
2023-01-01T01:26:14.176Z,22.40
2023-01-01T01:28:48.800Z,24.77
2023-01-01T01:31:16.599Z,24.20
2023-01-01T01:33:45.019Z,27.15
2023-01-01T01:36:12.362Z,22.65
2023-01-01T01:38:38.787Z,23.38
2023-01-01T01:41:05.511Z,25.02
2023-01-01T01:43:34.837Z,22.92
2023-01-01T01:46:11.045Z,22.58
2023-01-01T01:48:40.922Z,23.73
2023-01-01T01:51:07.902Z,25.88
2023-01-01T01:53:39.445Z,34.60
2023-01-01T01:56:13.627Z,33.90
2023-01-01T01:58:40.146Z,33.08
2023-01-01T02:01:06.636Z,32.00
2023-01-01T02:03:52.120Z,36.90
2023-01-01T02:06:19.832Z,37.78
2023-01-01T02:08:46.454Z,29.90
2023-01-01T02:11:17.437Z,29.73
2023-01-01T02:13:46.640Z,28.63
2023-01-01T02:16:20.849Z,24.60
2023-01-01T02:18:54.987Z,21.95
2023-01-01T02:21:28.177Z,21.50
2023-01-01T02:24:06.936Z,23.13
2023-01-01T02:26:50.408Z,20.27
2023-01-01T02:29:26.028Z,21.20
2023-01-01T02:32:07.313Z,22.00
2023-01-01T02:34:41.330Z,18.40
2023-01-01T02:37:12.064Z,18.03
2023-01-01T02:39:46.030Z,15.75
2023-01-01T02:42:12.908Z,13.97
2023-01-01T02:44:43.103Z,12.23
2023-01-01T02:47:16.126Z,11.68
2023-01-01T02:50:06.419Z,13.65
2023-01-01T02:52:41.628Z,14.45
2023-01-01T02:55:15.462Z,14.95
2023-01-01T02:57:51.243Z,16.70
2023-01-01T03:00:20.187Z,16.45
2023-01-01T03:03:11.144Z,18.67
2023-01-01T03:06:23.130Z,17.52
2023-01-01T03:08:53.455Z,15.98
2023-01-01T03:11:22.356Z,13.43
2023-01-01T03:13:58.842Z,9.93
2023-01-01T03:16:34.316Z,6.55
2023-01-01T03:19:13.989Z,5.60
2023-01-01T03:22:11.621Z,8.75
2023-01-01T03:24:45.626Z,7.40
2023-01-01T03:27:19.234Z,9.03
2023-01-01T03:29:48.287Z,6.07
2023-01-01T03:32:21.172Z,6.57
2023-01-01T03:34:55.317Z,9.70
2023-01-01T03:37:28.027Z,9.40
2023-01-01T03:39:59.320Z,9.50
2023-01-01T03:42:34.114Z,11.57
2023-01-01T03:47:31.255Z,7.63
2023-01-01T03:49:58.790Z,10.63
2023-01-01T03:52:53.089Z,11.68
2023-01-01T03:55:36.354Z,11.00
2023-01-01T03:58:19.114Z,11.25
2023-01-01T04:01:01.513Z,12.00
2023-01-01T04:03:31.478Z,10.57
2023-01-01T04:05:58.098Z,10.75
2023-01-01T04:08:24.974Z,9.85
2023-01-01T04:10:57.270Z,9.23
2023-01-01T04:13:23.656Z,8.77
2023-01-01T04:15:50.974Z,9.43
2023-01-01T04:18:17.774Z,10.27
2023-01-01T04:20:44.098Z,10.85
2023-01-01T04:23:10.480Z,11.73
2023-01-01T04:25:37.165Z,12.18
2023-01-01T04:28:03.720Z,12.10
2023-01-01T04:30:30.460Z,11.68
2023-01-01T04:32:57.187Z,12.95
2023-01-01T04:35:23.582Z,11.63
2023-01-01T04:37:49.919Z,11.05
2023-01-01T04:40:16.757Z,12.23
2023-01-01T04:42:43.475Z,12.13
2023-01-01T04:45:12.184Z,12.95
2023-01-01T04:47:39.301Z,13.43
2023-01-01T04:50:06.110Z,13.40
2023-01-01T04:52:32.943Z,13.80
2023-01-01T04:54:59.625Z,12.85
2023-01-01T04:57:25.966Z,14.90
2023-01-01T04:59:52.314Z,14.40
2023-01-01T05:02:19.193Z,15.52
2023-01-01T05:04:45.622Z,14.43
2023-01-01T05:07:11.948Z,13.18
2023-01-01T05:09:38.381Z,11.43
2023-01-01T05:12:04.909Z,10.73
2023-01-01T05:14:31.230Z,10.93
2023-01-01T05:16:58.132Z,12.02
2023-01-01T05:19:24.513Z,9.50
2023-01-01T05:21:50.849Z,10.15
2023-01-01T05:24:17.533Z,13.07
2023-01-01T05:26:44.977Z,13.85
2023-01-01T05:29:16.597Z,13.63
2023-01-01T05:31:44.855Z,12.77
2023-01-01T05:34:11.412Z,13.57
2023-01-01T05:36:39.102Z,14.27
2023-01-01T05:39:08.028Z,12.95
2023-01-01T05:41:36.334Z,12.73
2023-01-01T05:44:05.142Z,12.93
2023-01-01T05:46:32.434Z,12.40
2023-01-01T05:48:59.411Z,12.82
2023-01-01T05:51:28.046Z,13.07
2023-01-01T05:53:55.736Z,12.52
2023-01-01T05:56:22.720Z,12.30
2023-01-01T05:58:49.318Z,11.95
2023-01-01T06:01:28.841Z,12.45
2023-01-01T06:03:56.738Z,11.85
2023-01-01T06:06:26.329Z,10.95
2023-01-01T06:08:55.364Z,9.85
2023-01-01T06:11:22.148Z,10.77
2023-01-01T06:13:48.689Z,10.20
2023-01-01T06:16:15.445Z,9.75
2023-01-01T06:18:41.939Z,9.82
2023-01-01T06:21:13.904Z,9.25
2023-01-01T06:23:41.417Z,9.38
2023-01-01T06:26:13.892Z,9.35
2023-01-01T06:28:41.509Z,9.07
2023-01-01T06:31:10.585Z,8.07
2023-01-01T06:33:38.233Z,7.90
2023-01-01T06:36:08.048Z,7.47
2023-01-01T06:38:36.789Z,7.07
2023-01-01T06:41:06.267Z,9.02
2023-01-01T06:43:35.268Z,8.20
2023-01-01T06:46:06.136Z,6.97
2023-01-01T06:48:36.011Z,8.10
2023-01-01T06:51:17.339Z,9.57
2023-01-01T06:53:44.078Z,9.10
2023-01-01T06:56:10.638Z,9.32
2023-01-01T06:58:37.367Z,9.35
2023-01-01T07:01:08.959Z,9.38
2023-01-01T07:03:36.636Z,9.55
2023-01-01T07:06:03.346Z,9.15
2023-01-01T07:08:30.197Z,9.32
2023-01-01T07:10:57.505Z,9.88
2023-01-01T07:13:25.242Z,10.00
2023-01-01T07:15:52.837Z,9.77
2023-01-01T07:18:20.797Z,11.05
2023-01-01T07:20:56.408Z,10.48
2023-01-01T07:23:23.413Z,10.20
2023-01-01T07:25:50.999Z,10.30
2023-01-01T07:28:17.857Z,10.52
2023-01-01T07:30:44.491Z,10.00
2023-01-01T07:33:16.139Z,10.80
2023-01-01T07:35:45.257Z,9.32
2023-01-01T07:38:12.079Z,10.35
2023-01-01T07:40:38.462Z,9.10
2023-01-01T07:43:05.215Z,9.48
2023-01-01T07:45:31.894Z,8.15
2023-01-01T07:47:59.687Z,7.68
2023-01-01T07:50:29.007Z,8.57
2023-01-01T07:52:55.492Z,8.85
2023-01-01T07:55:22.304Z,9.77
2023-01-01T07:57:49.635Z,9.73
2023-01-01T08:00:19.032Z,10.00
2023-01-01T08:02:45.549Z,8.32
2023-01-01T08:05:12.436Z,9.25
2023-01-01T08:07:38.788Z,8.77
2023-01-01T08:10:07.149Z,7.70
2023-01-01T08:12:34.266Z,8.18
2023-01-01T08:15:00.620Z,7.82
2023-01-01T08:17:26.973Z,8.25
2023-01-01T08:19:53.731Z,11.40
2023-01-01T08:22:20.162Z,11.63
2023-01-01T08:24:46.567Z,11.27
2023-01-01T08:27:17.318Z,10.98
2023-01-01T08:29:44.589Z,11.65
2023-01-01T08:32:11.908Z,10.73
2023-01-01T08:34:38.710Z,10.02
2023-01-01T08:37:05.305Z,9.55
2023-01-01T08:39:32.108Z,9.23
2023-01-01T08:41:58.454Z,9.85
2023-01-01T08:44:24.793Z,8.52
2023-01-01T08:46:53.479Z,8.90
2023-01-01T08:49:19.841Z,8.80
2023-01-01T08:51:46.196Z,8.60
2023-01-01T08:54:12.932Z,8.32
2023-01-01T08:56:39.281Z,7.70
2023-01-01T08:59:06.049Z,8.32
2023-01-01T09:01:32.739Z,8.30
2023-01-01T09:03:59.147Z,7.75
2023-01-01T09:06:25.847Z,7.90
2023-01-01T09:08:52.175Z,6.85
2023-01-01T09:11:27.086Z,6.95
2023-01-01T09:13:54.778Z,8.60
2023-01-01T09:16:22.628Z,7.97
2023-01-01T09:18:49.602Z,8.50
2023-01-01T09:21:16.082Z,8.43
2023-01-01T09:23:43.036Z,7.07
2023-01-01T09:26:10.336Z,7.07
2023-01-01T09:28:37.729Z,7.90
2023-01-01T09:31:06.624Z,8.20
2023-01-01T09:33:33.944Z,8.57
2023-01-01T09:36:14.438Z,7.78
2023-01-01T09:38:40.790Z,9.43
2023-01-01T09:41:34.908Z,9.23
2023-01-01T09:44:24.801Z,9.35
2023-01-01T09:46:53.474Z,9.05
2023-01-01T09:49:37.948Z,8.77
2023-01-01T09:52:05.990Z,7.82
2023-01-01T09:54:39.812Z,5.55
2023-01-01T09:57:16.383Z,4.33
2023-01-01T09:59:46.208Z,6.25
2023-01-01T10:02:51.660Z,5.32
2023-01-01T10:05:44.223Z,4.88
2023-01-01T10:08:35.822Z,5.40
2023-01-01T10:11:18.881Z,5.35
2023-01-01T10:13:46.930Z,4.35
2023-01-01T10:16:26.188Z,4.45
2023-01-01T10:18:56.505Z,5.82
2023-01-01T10:21:39.586Z,6.20
2023-01-01T10:24:40.366Z,5.43
2023-01-01T10:27:07.066Z,6.53
2023-01-01T10:29:45.995Z,6.22
2023-01-01T10:32:20.283Z,6.05
2023-01-01T10:34:48.836Z,6.03
2023-01-01T10:37:15.401Z,5.88
2023-01-01T10:39:43.456Z,7.32
2023-01-01T10:42:13.313Z,4.80
2023-01-01T10:44:40.951Z,4.88
2023-01-01T10:47:27.310Z,4.70
2023-01-01T10:50:07.830Z,3.85
2023-01-01T10:52:43.425Z,5.03
2023-01-01T10:55:29.878Z,4.70
2023-01-01T10:57:56.593Z,4.13
2023-01-01T11:00:28.093Z,4.35
2023-01-01T11:03:19.217Z,3.58
2023-01-01T11:06:05.497Z,3.58
2023-01-01T11:08:33.913Z,4.90
2023-01-01T11:11:02.364Z,3.85
2023-01-01T11:13:30.316Z,3.38
2023-01-01T11:15:57.144Z,4.97
2023-01-01T11:18:36.188Z,4.45
2023-01-01T11:21:05.540Z,4.22
2023-01-01T11:23:36.159Z,3.97
2023-01-01T11:26:04.894Z,4.13
2023-01-01T11:28:34.839Z,3.88
2023-01-01T11:31:19.027Z,4.53
2023-01-01T11:33:50.078Z,3.60
2023-01-01T11:36:32.517Z,4.18
2023-01-01T11:39:25.035Z,3.90
2023-01-01T11:41:54.513Z,3.17
2023-01-01T11:44:38.012Z,3.88
2023-01-01T11:47:07.491Z,3.40
2023-01-01T11:49:34.731Z,4.18
2023-01-01T11:52:01.745Z,3.63
2023-01-01T11:54:34.440Z,3.10
2023-01-01T11:57:12.992Z,3.45
2023-01-01T11:59:51.311Z,2.60
2023-01-01T12:02:36.555Z,3.00
2023-01-01T12:05:43.709Z,2.67
2023-01-01T12:08:16.540Z,1.83
2023-01-01T12:10:52.676Z,1.80
2023-01-01T12:13:24.635Z,2.00
2023-01-01T12:16:11.632Z,2.08
2023-01-01T12:18:47.458Z,2.55
2023-01-01T12:21:24.675Z,2.33
2023-01-01T12:23:51.429Z,2.30
2023-01-01T12:26:26.737Z,3.08
2023-01-01T12:29:13.202Z,2.75
2023-01-01T12:32:02.146Z,2.47
2023-01-01T12:34:38.577Z,2.50
2023-01-01T12:37:11.313Z,2.80
2023-01-01T12:39:55.450Z,2.28
2023-01-01T12:43:00.916Z,2.17
2023-01-01T12:45:39.256Z,2.17
2023-01-01T12:48:31.017Z,1.98
2023-01-01T12:51:14.808Z,2.22
2023-01-01T12:53:44.722Z,2.28
2023-01-01T12:56:23.410Z,2.58
2023-01-01T12:59:17.785Z,2.42
2023-01-01T13:01:45.994Z,2.85
2023-01-01T13:04:20.668Z,2.63
2023-01-01T13:09:35.613Z,2.88
2023-01-01T13:12:08.334Z,2.55
2023-01-01T13:14:42.946Z,2.75
2023-01-01T13:19:49.036Z,2.90
2023-01-01T13:22:27.920Z,2.70
2023-01-01T13:25:20.926Z,2.50
2023-01-01T13:27:56.922Z,2.80
2023-01-01T13:30:36.006Z,2.85
2023-01-01T13:33:28.629Z,3.13
2023-01-01T13:36:13.372Z,3.53
2023-01-01T13:38:54.297Z,3.40
2023-01-01T13:41:35.267Z,3.00
2023-01-01T13:44:02.310Z,2.45
2023-01-01T13:46:44.139Z,2.53
2023-01-01T13:49:31.459Z,3.33
2023-01-01T13:52:32.560Z,3.10
2023-01-01T13:55:30.827Z,2.30
2023-01-01T13:58:27.195Z,2.90
2023-01-01T14:01:23.609Z,2.42
2023-01-01T14:03:53.233Z,3.13
2023-01-01T14:06:39.402Z,3.05
2023-01-01T14:09:11.343Z,3.05
2023-01-01T14:11:37.784Z,3.20
2023-01-01T14:14:24.688Z,3.15
2023-01-01T14:16:52.934Z,3.10
2023-01-01T14:19:19.329Z,2.90
2023-01-01T14:21:46.815Z,2.67
2023-01-01T14:24:16.362Z,2.72
2023-01-01T14:26:43.385Z,3.53
2023-01-01T14:29:16.763Z,2.63
2023-01-01T14:31:44.920Z,3.38
2023-01-01T14:34:27.155Z,3.97
2023-01-01T14:36:55.895Z,3.22
2023-01-01T14:39:31.383Z,3.30
2023-01-01T14:42:00.776Z,3.58
2023-01-01T14:44:40.805Z,2.63
2023-01-01T14:47:32.327Z,2.50
2023-01-01T14:50:18.829Z,3.25
2023-01-01T14:52:45.649Z,3.25
2023-01-01T14:55:19.530Z,2.42
2023-01-01T14:57:50.529Z,3.00
2023-01-01T15:00:32.773Z,2.92
2023-01-01T15:03:07.673Z,3.00
2023-01-01T15:05:36.428Z,2.95
2023-01-01T15:08:06.078Z,4.18
2023-01-01T15:10:35.938Z,2.75
2023-01-01T15:13:06.079Z,2.83
2023-01-01T15:15:39.922Z,3.03
2023-01-01T15:18:27.025Z,2.63
2023-01-01T15:20:55.289Z,3.05
2023-01-01T15:23:21.736Z,2.33
2023-01-01T15:25:48.581Z,2.63
2023-01-01T15:28:23.091Z,2.80
2023-01-01T15:30:57.295Z,3.00
2023-01-01T15:33:24.011Z,2.40
2023-01-01T15:35:52.488Z,2.60
2023-01-01T15:38:19.300Z,2.25
2023-01-01T15:40:52.738Z,3.00
2023-01-01T15:43:29.883Z,2.97
2023-01-01T15:46:11.127Z,2.90
2023-01-01T15:48:51.608Z,2.90
2023-01-01T15:51:26.989Z,2.67
2023-01-01T15:54:00.271Z,3.80
2023-01-01T15:56:32.066Z,3.00
2023-01-01T15:59:08.744Z,3.38
2023-01-01T16:01:38.380Z,4.60
2023-01-01T16:04:22.066Z,4.57
2023-01-01T16:06:54.813Z,4.60
2023-01-01T16:09:21.944Z,4.82
2023-01-01T16:11:57.022Z,4.40
2023-01-01T16:14:24.314Z,4.53
2023-01-01T16:16:57.282Z,4.78
2023-01-01T16:19:24.743Z,5.03
2023-01-01T16:21:51.071Z,5.50
2023-01-01T16:24:19.274Z,5.10
2023-01-01T16:26:47.320Z,4.32
2023-01-01T16:29:14.132Z,4.40
2023-01-01T16:31:41.923Z,5.03
2023-01-01T16:34:13.384Z,3.53
2023-01-01T16:36:39.907Z,4.32
2023-01-01T16:39:06.245Z,5.28
2023-01-01T16:41:32.990Z,4.25
2023-01-01T16:43:59.318Z,4.80
2023-01-01T16:46:28.468Z,4.35
2023-01-01T16:48:54.867Z,4.63
2023-01-01T16:51:24.828Z,5.63
2023-01-01T16:53:51.376Z,4.32
2023-01-01T16:56:18.104Z,3.28
2023-01-01T16:58:49.735Z,2.78
2023-01-01T17:01:17.901Z,2.65
2023-01-01T17:03:44.331Z,2.85
2023-01-01T17:06:11.220Z,2.78
2023-01-01T17:08:39.051Z,2.65
2023-01-01T17:11:10.085Z,2.50
2023-01-01T17:13:36.917Z,2.90
2023-01-01T17:16:03.932Z,2.53
2023-01-01T17:18:55.198Z,2.72
2023-01-01T17:21:18.442Z,3.60
2023-01-01T17:23:45.016Z,3.42
2023-01-01T17:26:15.146Z,2.63
2023-01-01T17:28:42.773Z,2.00
2023-01-01T17:31:11.924Z,2.83
2023-01-01T17:33:38.959Z,2.78
2023-01-01T17:36:06.742Z,2.88
2023-01-01T17:38:33.198Z,3.20
2023-01-01T17:41:05.487Z,2.58
2023-01-01T17:43:37.642Z,2.83
2023-01-01T17:46:06.309Z,2.72
2023-01-01T17:48:33.042Z,2.85
2023-01-01T17:51:00.419Z,2.83
2023-01-01T17:53:27.003Z,3.25
2023-01-01T17:55:53.577Z,3.53
2023-01-01T17:58:20.388Z,3.08
2023-01-01T18:00:46.945Z,3.17
2023-01-01T18:03:14.120Z,3.20
2023-01-01T18:05:41.040Z,3.53
2023-01-01T18:08:07.767Z,2.42
2023-01-01T18:10:34.319Z,3.28
2023-01-01T18:13:01.135Z,3.70
2023-01-01T18:15:27.728Z,3.72
2023-01-01T18:17:54.096Z,3.40
2023-01-01T18:20:20.618Z,3.75
2023-01-01T18:22:47.012Z,3.88
2023-01-01T18:25:13.387Z,3.47
2023-01-01T18:27:40.285Z,3.53
2023-01-01T18:30:07.091Z,2.85
2023-01-01T18:32:33.440Z,2.30
2023-01-01T18:34:59.913Z,2.15
2023-01-01T18:37:26.657Z,2.20
2023-01-01T18:39:55.658Z,2.20
2023-01-01T18:42:35.333Z,2.10
2023-01-01T18:45:13.344Z,2.50
2023-01-01T18:47:40.507Z,2.13
2023-01-01T18:50:25.539Z,2.63
2023-01-01T18:53:03.139Z,2.15
2023-01-01T18:55:30.807Z,2.20
2023-01-01T18:58:16.818Z,1.98
2023-01-01T19:00:43.587Z,2.50
2023-01-01T19:03:19.051Z,2.40
2023-01-01T19:05:47.542Z,3.15
2023-01-01T19:08:17.829Z,2.58
2023-01-01T19:10:46.227Z,2.90
2023-01-01T19:13:37.226Z,2.42
2023-01-01T19:16:29.531Z,2.25
2023-01-01T19:19:06.276Z,2.58
2023-01-01T19:21:33.220Z,2.20
2023-01-01T19:24:02.057Z,1.85
2023-01-01T19:26:34.582Z,2.90
2023-01-01T19:29:16.965Z,3.85
2023-01-01T19:31:45.120Z,3.55
2023-01-01T19:34:11.660Z,4.13
2023-01-01T19:36:38.493Z,5.80
2023-01-01T19:39:05.812Z,4.55
2023-01-01T19:41:32.417Z,4.82
2023-01-01T19:43:58.757Z,5.40
2023-01-01T19:46:25.535Z,5.65
2023-01-01T19:48:53.589Z,4.75
2023-01-01T19:51:22.571Z,4.13
2023-01-01T19:53:53.288Z,4.53
2023-01-01T19:56:20.089Z,4.47
2023-01-01T19:58:46.583Z,4.72
2023-01-01T20:01:14.008Z,4.75
2023-01-01T20:03:54.194Z,4.60
2023-01-01T20:06:21.689Z,4.30
2023-01-01T20:08:48.011Z,4.55
2023-01-01T20:11:15.331Z,3.92
2023-01-01T20:13:42.065Z,5.20
2023-01-01T20:16:08.626Z,5.20
2023-01-01T20:18:35.085Z,4.70
2023-01-01T20:21:25.567Z,5.13
2023-01-01T20:23:52.602Z,5.13
2023-01-01T20:26:21.101Z,4.72
2023-01-01T20:29:05.771Z,3.85
2023-01-01T20:31:32.156Z,3.45
2023-01-01T20:33:58.514Z,4.13
2023-01-01T20:36:43.685Z,4.82
2023-01-01T20:39:10.530Z,3.22
2023-01-01T20:41:36.891Z,4.38
2023-01-01T20:44:03.277Z,3.40
2023-01-01T20:46:30.361Z,3.70
2023-01-01T20:48:57.461Z,4.20
2023-01-01T20:51:23.890Z,3.53
2023-01-01T20:53:50.771Z,3.72
2023-01-01T20:56:17.122Z,3.75
2023-01-01T20:58:48.571Z,3.92
2023-01-01T21:01:17.007Z,4.13
2023-01-01T21:03:43.394Z,3.85
2023-01-01T21:06:09.821Z,3.88
2023-01-01T21:08:36.537Z,3.38
2023-01-01T21:11:03.254Z,3.85
2023-01-01T21:13:29.641Z,3.80
2023-01-01T21:16:02.301Z,4.22
2023-01-01T21:18:30.473Z,3.78
2023-01-01T21:20:56.861Z,3.08
2023-01-01T21:23:30.038Z,3.90
2023-01-01T21:25:57.138Z,3.13
2023-01-01T21:28:27.008Z,3.42
2023-01-01T21:30:56.875Z,3.90
2023-01-01T21:33:28.910Z,2.90
2023-01-01T21:35:55.452Z,4.10
2023-01-01T21:38:26.404Z,3.67
2023-01-01T21:40:54.048Z,3.63
2023-01-01T21:43:33.068Z,3.28
2023-01-01T21:46:14.420Z,3.28
2023-01-01T21:48:47.269Z,3.45
2023-01-01T21:51:22.689Z,3.17
2023-01-01T21:53:49.965Z,3.55
2023-01-01T21:56:37.622Z,3.67
2023-01-01T21:59:35.515Z,3.40
2023-01-01T22:02:08.589Z,3.17
2023-01-01T22:04:40.058Z,3.40
2023-01-01T22:10:25.343Z,3.78
2023-01-01T22:12:59.391Z,2.67
2023-01-01T22:15:25.774Z,2.53
2023-01-01T22:18:12.715Z,3.03
2023-01-01T22:20:41.702Z,2.95
2023-01-01T22:23:23.541Z,2.92
2023-01-01T22:25:51.373Z,3.47
2023-01-01T22:28:33.247Z,2.55
2023-01-01T22:31:01.716Z,2.88
2023-01-01T22:33:38.749Z,3.15
2023-01-01T22:36:22.211Z,3.08
2023-01-01T22:38:49.261Z,3.33
2023-01-01T22:41:15.722Z,2.88
2023-01-01T22:43:45.831Z,3.15
2023-01-01T22:46:27.324Z,3.03
2023-01-01T22:48:58.360Z,3.63
2023-01-01T22:51:28.905Z,3.03
2023-01-01T22:53:55.262Z,2.75
2023-01-01T22:56:21.778Z,3.20
2023-01-01T22:58:54.769Z,2.38
2023-01-01T23:01:23.407Z,2.88
2023-01-01T23:03:50.222Z,3.40
2023-01-01T23:06:18.484Z,3.25
2023-01-01T23:08:45.133Z,3.38
2023-01-01T23:11:11.651Z,3.85
2023-01-01T23:13:56.865Z,3.10
2023-01-01T23:16:23.281Z,3.35
2023-01-01T23:18:49.702Z,3.45
2023-01-01T23:21:26.363Z,3.25
2023-01-01T23:23:56.558Z,4.25
2023-01-01T23:26:23.989Z,3.47
2023-01-01T23:28:51.153Z,3.17
2023-01-01T23:31:25.231Z,4.07
2023-01-01T23:33:52.845Z,4.35
2023-01-01T23:36:19.218Z,3.50
2023-01-01T23:38:46.165Z,3.45
2023-01-01T23:41:12.497Z,3.58
2023-01-01T23:43:43.229Z,3.40
2023-01-01T23:46:11.758Z,3.72
2023-01-01T23:48:38.516Z,3.28
2023-01-01T23:51:05.184Z,3.83
2023-01-01T23:53:31.964Z,3.28
2023-01-01T23:55:58.444Z,3.53
2023-01-01T23:58:25.329Z,4.15
